createdAt,value
2022-10-23T00:01:29.564Z,5.60
2022-10-23T00:11:35.763Z,6.63
2022-10-23T00:16:38.545Z,8.05
2022-10-23T00:21:41.534Z,6.82
2022-10-23T00:26:44.510Z,6.80
2022-10-23T00:31:47.561Z,5.95
2022-10-23T00:36:50.374Z,8.07
2022-10-23T00:41:53.570Z,7.80
2022-10-23T00:46:58.297Z,7.32
2022-10-23T00:52:07.299Z,5.65
2022-10-23T00:57:14.324Z,7.95
2022-10-23T01:02:17.377Z,8.60
2022-10-23T01:07:33.945Z,8.18
2022-10-23T01:12:39.896Z,8.15
2022-10-23T01:17:48.587Z,5.90
2022-10-23T01:28:26.233Z,6.40
2022-10-23T01:33:43.807Z,6.25
2022-10-23T01:38:52.711Z,7.47
2022-10-23T01:44:17.615Z,7.88
2022-10-23T01:49:21.431Z,7.85
2022-10-23T01:54:32.931Z,8.93
2022-10-23T01:59:38.927Z,6.95
2022-10-23T02:04:48.737Z,10.15
2022-10-23T02:09:51.788Z,9.02
2022-10-23T02:14:59.700Z,8.63
2022-10-23T02:20:08.592Z,8.45
2022-10-23T02:25:16.296Z,6.53
2022-10-23T02:30:21.383Z,6.05
2022-10-23T02:35:43.119Z,5.40
2022-10-23T02:41:06.130Z,6.95
2022-10-23T02:46:21.249Z,6.53
2022-10-23T02:51:47.125Z,6.35
2022-10-23T02:56:53.207Z,7.45
2022-10-23T03:02:02.955Z,6.40
2022-10-23T03:07:10.771Z,5.93
2022-10-23T03:12:13.721Z,5.43
2022-10-23T03:17:16.623Z,4.88
2022-10-23T03:22:22.489Z,7.32
2022-10-23T03:27:25.553Z,6.75
2022-10-23T03:32:30.890Z,7.22
2022-10-23T03:37:33.745Z,7.55
2022-10-23T03:42:37.599Z,8.60
2022-10-23T03:47:41.774Z,8.70
2022-10-23T03:52:45.302Z,7.80
2022-10-23T03:57:49.123Z,8.20
2022-10-23T04:02:55.756Z,8.13
2022-10-23T04:07:59.203Z,8.15
2022-10-23T04:13:02.366Z,8.48
2022-10-23T04:18:11.218Z,8.88
2022-10-23T04:23:14.185Z,8.00
2022-10-23T04:28:18.459Z,8.85
2022-10-23T04:33:21.950Z,7.83
2022-10-23T04:38:26.884Z,8.32
2022-10-23T04:43:29.817Z,8.43
2022-10-23T04:48:32.845Z,8.93
2022-10-23T04:53:57.464Z,8.40
2022-10-23T04:59:19.229Z,8.57
2022-10-23T05:04:22.696Z,8.82
2022-10-23T05:09:54.925Z,7.75
2022-10-23T05:15:16.208Z,8.07
2022-10-23T05:20:22.314Z,8.40
2022-10-23T05:25:25.274Z,9.77
2022-10-23T05:30:38.858Z,11.90
2022-10-23T05:35:43.907Z,11.90
2022-10-23T05:40:48.090Z,12.75
2022-10-23T05:45:56.400Z,13.95
2022-10-23T05:51:22.594Z,13.05
2022-10-23T05:56:51.940Z,12.47
2022-10-23T06:02:08.359Z,14.10
2022-10-23T06:07:24.972Z,15.30
2022-10-23T06:12:29.292Z,18.20
2022-10-23T06:17:32.292Z,21.83
2022-10-23T06:22:35.256Z,21.33
2022-10-23T06:27:53.180Z,20.77
2022-10-23T06:32:57.129Z,21.00
2022-10-23T06:38:00.123Z,20.77
2022-10-23T06:43:13.111Z,21.98
2022-10-23T06:48:38.840Z,22.88
2022-10-23T06:53:47.152Z,24.17
2022-10-23T06:59:10.075Z,23.42
2022-10-23T07:04:14.882Z,24.88
2022-10-23T07:09:19.150Z,24.23
2022-10-23T07:14:30.773Z,26.95
2022-10-23T07:19:34.808Z,28.40
2022-10-23T07:24:44.016Z,27.52
2022-10-23T07:29:55.703Z,29.85
2022-10-23T07:34:59.360Z,30.65
2022-10-23T07:40:28.070Z,31.77
2022-10-23T07:45:32.674Z,30.73
2022-10-23T07:50:42.044Z,30.48
2022-10-23T07:55:53.051Z,31.02
2022-10-23T08:00:58.695Z,31.63
2022-10-23T08:06:09.060Z,31.60
2022-10-23T08:11:14.212Z,31.65
2022-10-23T08:16:25.767Z,31.13
2022-10-23T08:21:40.465Z,31.52
2022-10-23T08:26:46.147Z,30.98
2022-10-23T08:31:50.173Z,29.95
2022-10-23T08:37:02.734Z,29.90
2022-10-23T08:42:26.773Z,29.80
2022-10-23T08:47:37.649Z,28.25
2022-10-23T08:53:04.583Z,27.42
2022-10-23T08:58:10.975Z,27.13
2022-10-23T09:03:14.241Z,26.05
2022-10-23T09:08:35.892Z,26.67
2022-10-23T09:13:38.781Z,26.55
2022-10-23T09:18:42.736Z,26.08
2022-10-23T09:23:45.632Z,24.73
2022-10-23T09:28:50.020Z,25.65
2022-10-23T09:34:01.293Z,23.52
2022-10-23T09:39:04.221Z,24.77
2022-10-23T09:44:20.432Z,22.80
2022-10-23T09:49:25.417Z,19.75
2022-10-23T09:54:29.346Z,20.52
2022-10-23T09:59:33.468Z,19.90
2022-10-23T10:04:55.268Z,18.77
2022-10-23T10:09:58.935Z,17.73
2022-10-23T10:15:05.548Z,17.40
2022-10-23T10:20:27.235Z,18.42
2022-10-23T10:25:59.285Z,17.77
2022-10-23T10:31:14.234Z,18.00
2022-10-23T10:41:29.011Z,15.52
2022-10-23T10:46:44.151Z,13.77
2022-10-23T10:52:02.321Z,13.23
2022-10-23T10:57:06.195Z,10.07
2022-10-23T11:02:09.053Z,9.37
2022-10-23T11:07:18.546Z,7.05
2022-10-23T11:12:23.979Z,7.22
2022-10-23T11:17:30.601Z,6.20
2022-10-23T11:22:37.472Z,5.40
2022-10-23T11:27:43.893Z,5.30
2022-10-23T11:32:49.197Z,5.03
2022-10-23T11:38:08.468Z,4.95
2022-10-23T11:43:11.544Z,4.90
2022-10-23T11:48:14.391Z,5.25
2022-10-23T11:53:43.487Z,4.90
2022-10-23T11:58:47.792Z,5.13
2022-10-23T12:03:56.493Z,5.03
2022-10-23T12:09:04.238Z,4.82
2022-10-23T12:14:25.463Z,4.40
2022-10-23T12:19:38.591Z,5.22
2022-10-23T12:24:52.593Z,4.53
2022-10-23T12:30:02.749Z,4.82
2022-10-23T12:35:05.557Z,4.25
2022-10-23T12:40:09.729Z,4.45
2022-10-23T12:45:20.866Z,4.10
2022-10-23T12:50:26.322Z,4.50
2022-10-23T12:55:33.623Z,4.53
2022-10-23T13:00:38.733Z,5.03
2022-10-23T13:05:41.697Z,4.50
2022-10-23T13:10:44.642Z,4.95
2022-10-23T13:15:52.673Z,4.78
2022-10-23T13:20:57.205Z,4.78
2022-10-23T13:26:21.790Z,4.70
2022-10-23T13:31:30.239Z,4.82
2022-10-23T13:36:53.830Z,4.38
2022-10-23T13:41:57.693Z,4.60
2022-10-23T13:47:00.496Z,5.32
2022-10-23T13:52:03.328Z,4.38
2022-10-23T13:57:07.411Z,4.38
2022-10-23T14:02:19.377Z,4.57
2022-10-23T14:07:22.402Z,4.32
2022-10-23T14:12:25.448Z,4.55
2022-10-23T14:17:28.359Z,4.65
2022-10-23T14:22:31.205Z,5.13
2022-10-23T14:27:34.090Z,4.63
2022-10-23T14:32:38.508Z,4.50
2022-10-23T14:42:45.405Z,4.50
2022-10-23T14:47:48.518Z,4.17
2022-10-23T14:52:51.520Z,3.97
2022-10-23T14:57:58.056Z,4.97
2022-10-23T15:03:00.936Z,4.40
2022-10-23T15:08:04.294Z,4.70
2022-10-23T15:13:07.136Z,4.37
2022-10-23T15:18:09.945Z,4.60
2022-10-23T15:23:12.812Z,4.53
2022-10-23T15:28:16.385Z,4.50
2022-10-23T15:33:20.029Z,4.70
2022-10-23T15:38:23.046Z,4.50
2022-10-23T15:43:25.936Z,4.60
2022-10-23T15:48:30.359Z,4.93
2022-10-23T15:53:36.631Z,5.05
2022-10-23T15:58:39.620Z,4.68
2022-10-23T16:03:42.805Z,5.10
2022-10-23T16:08:45.823Z,5.32
2022-10-23T16:13:49.964Z,4.95
2022-10-23T16:18:53.824Z,5.40
2022-10-23T16:23:58.118Z,5.38
2022-10-23T16:29:02.407Z,5.00
2022-10-23T16:39:09.444Z,4.72
2022-10-23T16:44:31.015Z,5.10
2022-10-23T16:49:36.045Z,4.95
2022-10-23T16:54:38.874Z,5.43
2022-10-23T16:59:41.954Z,5.00
2022-10-23T17:04:49.109Z,4.47
2022-10-23T17:09:53.348Z,4.90
2022-10-23T17:14:56.181Z,5.65
2022-10-23T17:19:59.228Z,5.45
2022-10-23T17:25:02.214Z,6.28
2022-10-23T17:30:09.246Z,5.90
2022-10-23T17:35:15.900Z,5.93
2022-10-23T17:40:37.161Z,6.13
2022-10-23T17:45:42.402Z,6.03
2022-10-23T17:50:45.209Z,6.07
2022-10-23T17:55:47.988Z,5.93
2022-10-23T18:00:50.877Z,6.00
2022-10-23T18:05:53.706Z,6.43
2022-10-23T18:10:56.572Z,6.22
2022-10-23T18:16:04.016Z,6.43
2022-10-23T18:21:07.407Z,6.82
2022-10-23T18:26:18.503Z,6.85
2022-10-23T18:31:25.048Z,6.90
2022-10-23T18:36:29.775Z,6.47
2022-10-23T18:41:40.164Z,6.90
2022-10-23T18:46:43.131Z,6.00
2022-10-23T18:51:46.567Z,6.32
2022-10-23T18:56:49.734Z,6.40
2022-10-23T19:01:52.837Z,6.45
2022-10-23T19:06:55.992Z,6.57
2022-10-23T19:12:00.630Z,6.68
2022-10-23T19:17:05.073Z,7.00
2022-10-23T19:22:09.140Z,6.43
2022-10-23T19:27:12.232Z,6.25
2022-10-23T19:32:15.673Z,5.63
2022-10-23T19:37:18.510Z,7.22
2022-10-23T19:42:21.515Z,4.85
2022-10-23T19:47:25.907Z,5.68
2022-10-23T19:52:29.041Z,5.55
2022-10-23T19:57:33.910Z,5.07
2022-10-23T20:02:37.828Z,5.47
2022-10-23T20:07:40.762Z,5.10
2022-10-23T20:12:47.462Z,5.78
2022-10-23T20:17:59.936Z,5.80
2022-10-23T20:23:02.750Z,5.10
2022-10-23T20:28:07.488Z,5.68
2022-10-23T20:33:12.409Z,5.40
2022-10-23T20:38:15.191Z,5.38
2022-10-23T20:43:18.276Z,5.10
2022-10-23T20:48:22.636Z,4.55
2022-10-23T20:53:25.590Z,4.30
2022-10-23T20:58:28.385Z,4.38
2022-10-23T21:03:31.462Z,4.30
2022-10-23T21:08:34.645Z,4.07
2022-10-23T21:13:37.897Z,3.60
2022-10-23T21:18:46.030Z,3.25
2022-10-23T21:23:51.367Z,3.05
2022-10-23T21:34:04.110Z,2.83
2022-10-23T21:39:06.937Z,2.60
2022-10-23T21:44:11.173Z,2.80
2022-10-23T21:49:14.041Z,2.53
2022-10-23T21:54:16.937Z,2.70
2022-10-23T21:59:21.947Z,2.33
2022-10-23T22:04:25.087Z,2.80
2022-10-23T22:09:27.950Z,2.78
2022-10-23T22:14:30.829Z,3.22
2022-10-23T22:19:33.653Z,3.08
2022-10-23T22:24:39.704Z,2.92
2022-10-23T22:29:44.345Z,3.63
2022-10-23T22:34:52.891Z,3.63
2022-10-23T22:39:57.355Z,3.60
2022-10-23T22:45:00.367Z,3.67
2022-10-23T22:50:03.228Z,4.00
2022-10-23T22:55:06.612Z,4.45
2022-10-23T23:00:09.630Z,4.43
2022-10-23T23:05:12.926Z,3.88
2022-10-23T23:10:15.764Z,3.72
2022-10-23T23:15:19.220Z,3.90
2022-10-23T23:20:22.029Z,3.50
2022-10-23T23:25:25.229Z,3.47
2022-10-23T23:30:28.097Z,4.18
2022-10-23T23:35:31.015Z,4.35
2022-10-23T23:40:33.929Z,4.75
2022-10-23T23:45:36.754Z,3.97
2022-10-23T23:50:39.644Z,4.72
